Terminal Aerodrome Forecast
Issued by NWS Blacksburg, VA

Home | Current Version | Previous Version | Text Only | Print | Product List | Glossary On
Versions: 1 2 3 4 5 6 7 8 9 10 11 12 13 14 15 16 17 18 19 20 21 22 23 24 25 26 27 28 29 30 31 32 33 34 35 36 37 38 39 40 41 42 43 44 45 46 47
949
FTUS41 KRNK 050541
TAFROA
TAF
KROA 050541Z 0506/0606 33005KT P6SM OVC090
     FM050900 33005KT P6SM -SHRA OVC025
     FM051600 33009KT 5SM SHRA OVC018
     FM051900 32010G18KT P6SM -SHRA OVC025
     FM060000 31005KT 5SM -SHRA BR OVC015=

USA.gov is the U.S. government's official web portal to all federal, state and local government web resources and services.